Time;durP1;ratioP1;P1;durP2;ratioP2;P2;SDS_P1;SDS_P2;PMS_P1;PMS_P2;Temp;Humidity;BMP_temperature;BMP_pressure;BME280_temperature;BME280_humidity;BME280_pressure;Samples;Min_cycle;Max_cycle;Signal;HPM_P1;HPM_P2
2022/11/06 00:00:34;;;;;;;33.80;20.73;;;;;;;;;;4977915;28;20421;-93
2022/11/06 00:03:01;;;;;;;32.40;19.08;;;;;;;;;;4976888;28;20027;-93
2022/11/06 00:08:25;;;;;;;36.17;20.70;;;;;;;;;;4977119;28;20054;-86
2022/11/06 00:10:51;;;;;;;27.65;17.83;;;;;;;;;;4980028;28;20023;-84
2022/11/06 00:13:18;;;;;;;28.88;19.35;;;;;;;;;;4979525;28;20034;-85
2022/11/06 00:15:44;;;;;;;36.35;20.77;;;;;;;;;;4975856;28;20469;-86
2022/11/06 00:18:10;;;;;;;30.92;18.08;;;;;;;;;;4974888;28;20070;-84
2022/11/06 00:20:38;;;;;;;26.90;18.23;;;;;;;;;;4975290;28;20023;-93
2022/11/06 00:23:04;;;;;;;29.85;18.52;;;;;;;;;;4976466;28;20420;-88
2022/11/06 00:25:30;;;;;;;24.92;17.23;;;;;;;;;;4975458;28;20051;-85
2022/11/06 00:27:57;;;;;;;27.77;18.15;;;;;;;;;;4975307;28;20026;-85
2022/11/06 00:30:23;;;;;;;30.92;18.55;;;;;;;;;;4974363;28;20027;-85
2022/11/06 00:32:49;;;;;;;28.58;17.75;;;;;;;;;;4974789;28;20468;-85
2022/11/06 00:35:15;;;;;;;29.02;17.40;;;;;;;;;;4975333;28;20089;-86
2022/11/06 00:37:41;;;;;;;29.88;18.98;;;;;;;;;;4975186;28;20030;-86
2022/11/06 00:40:07;;;;;;;28.88;18.73;;;;;;;;;;4974882;28;20468;-86
2022/11/06 00:42:33;;;;;;;30.58;20.08;;;;;;;;;;4975160;28;20047;-85
2022/11/06 00:44:59;;;;;;;29.27;19.90;;;;;;;;;;4975189;28;20031;-84
2022/11/06 00:47:25;;;;;;;34.08;19.42;;;;;;;;;;4974730;28;20472;-83
2022/11/06 00:49:51;;;;;;;33.10;21.13;;;;;;;;;;4974853;28;20030;-85
2022/11/06 00:52:18;;;;;;;34.13;19.33;;;;;;;;;;4974899;28;20456;-85
2022/11/06 00:54:44;;;;;;;32.65;20.27;;;;;;;;;;4974694;28;20030;-84
2022/11/06 00:57:10;;;;;;;31.27;20.52;;;;;;;;;;4974753;28;20058;-87
2022/11/06 00:59:36;;;;;;;35.08;20.98;;;;;;;;;;4974570;28;20027;-85
2022/11/06 01:02:02;;;;;;;33.30;20.65;;;;;;;;;;4974293;28;20029;-85
2022/11/06 01:04:28;;;;;;;32.13;20.80;;;;;;;;;;4974770;28;20026;-85
2022/11/06 01:06:57;;;;;;;32.92;20.83;;;;;;;;;;4974414;28;20085;-86
2022/11/06 01:09:24;;;;;;;40.88;24.10;;;;;;;;;;4974560;28;20106;-85
2022/11/06 01:11:52;;;;;;;38.50;22.23;;;;;;;;;;4974598;28;20405;-84
2022/11/06 01:14:19;;;;;;;37.13;22.70;;;;;;;;;;4975419;28;20035;-84
2022/11/06 01:16:45;;;;;;;44.60;24.95;;;;;;;;;;4974765;28;20089;-85
2022/11/06 01:19:12;;;;;;;41.03;23.42;;;;;;;;;;4974500;28;20023;-85
2022/11/06 01:21:41;;;;;;;45.25;23.67;;;;;;;;;;4974206;28;20038;-85
2022/11/06 01:24:09;;;;;;;41.92;22.50;;;;;;;;;;4974562;28;20034;-87
2022/11/06 01:26:36;;;;;;;37.38;21.52;;;;;;;;;;4974357;28;20117;-85
2022/11/06 01:29:03;;;;;;;38.10;20.80;;;;;;;;;;4970129;28;20019;-83
2022/11/06 01:31:30;;;;;;;37.15;20.83;;;;;;;;;;4955126;28;20533;-86
2022/11/06 01:33:57;;;;;;;43.05;23.48;;;;;;;;;;4954095;28;20035;-86
2022/11/06 01:36:24;;;;;;;45.17;24.98;;;;;;;;;;4938946;29;20050;-85
2022/11/06 01:38:51;;;;;;;39.15;21.23;;;;;;;;;;4954582;29;20027;-84
2022/11/06 01:41:28;;;;;;;50.85;24.42;;;;;;;;;;4954429;29;20057;-84
2022/11/06 01:43:56;;;;;;;43.58;25.33;;;;;;;;;;4954378;29;20031;-84
2022/11/06 01:46:27;;;;;;;35.95;21.75;;;;;;;;;;4954839;28;20058;-84
2022/11/06 01:48:56;;;;;;;37.25;21.30;;;;;;;;;;4954897;29;20094;-85
2022/11/06 01:51:23;;;;;;;40.13;21.55;;;;;;;;;;4954592;28;20026;-85
2022/11/06 01:53:49;;;;;;;46.58;26.65;;;;;;;;;;4954707;28;20024;-87
2022/11/06 01:56:16;;;;;;;50.40;24.48;;;;;;;;;;4954382;28;20392;-84
2022/11/06 01:58:43;;;;;;;38.60;22.20;;;;;;;;;;4954393;29;20454;-84
2022/11/06 02:01:09;;;;;;;39.88;20.83;;;;;;;;;;4954522;28;20023;-85
2022/11/06 02:03:39;;;;;;;49.80;24.83;;;;;;;;;;4954180;29;20028;-84
2022/11/06 02:06:07;;;;;;;54.40;25.50;;;;;;;;;;4955491;29;20039;-84
2022/11/06 02:08:33;;;;;;;50.72;23.90;;;;;;;;;;4954446;29;20023;-85
2022/11/06 02:10:59;;;;;;;38.05;20.75;;;;;;;;;;4954624;28;20039;-86
2022/11/06 02:13:37;;;;;;;36.40;20.95;;;;;;;;;;4954514;28;20477;-84
2022/11/06 02:16:09;;;;;;;33.45;20.00;;;;;;;;;;4954599;28;20361;-85
2022/11/06 02:18:53;;;;;;;33.33;19.73;;;;;;;;;;4954750;29;20447;-85
2022/11/06 02:21:22;;;;;;;45.55;23.85;;;;;;;;;;4954641;29;20027;-83
2022/11/06 02:24:10;;;;;;;50.08;26.15;;;;;;;;;;4954696;29;20030;-85
2022/11/06 02:26:49;;;;;;;39.13;24.10;;;;;;;;;;4954333;28;20027;-84
2022/11/06 02:29:19;;;;;;;36.17;19.15;;;;;;;;;;4954151;29;20513;-84
2022/11/06 02:31:46;;;;;;;30.08;18.70;;;;;;;;;;4953863;29;20039;-84
2022/11/06 02:34:13;;;;;;;36.25;21.33;;;;;;;;;;4954190;28;20038;-84
2022/11/06 02:36:41;;;;;;;28.05;18.15;;;;;;;;;;4958114;28;20469;-85
2022/11/06 02:39:11;;;;;;;29.17;17.40;;;;;;;;;;4953199;28;20027;-85
2022/11/06 02:41:39;;;;;;;28.10;16.70;;;;;;;;;;4953205;28;20063;-84
2022/11/06 02:44:07;;;;;;;26.50;16.40;;;;;;;;;;4953982;29;20039;-84
2022/11/06 02:46:33;;;;;;;29.58;19.02;;;;;;;;;;4969307;28;20030;-84
2022/11/06 02:49:12;;;;;;;26.90;16.48;;;;;;;;;;4973419;28;20027;-84
2022/11/06 02:51:43;;;;;;;31.73;19.00;;;333.00;2329.60;;;;;;4973048;28;20465;-84
2022/11/06 02:54:10;;;;;;;29.05;16.70;;;;;;;;;;4974236;28;20532;-86
2022/11/06 02:56:39;;;;;;;27.17;17.80;;;;;;;;;;4976943;28;20058;-84
2022/11/06 02:59:09;;;;;;;27.88;17.77;;;;;;;;;;4976508;28;20038;-85
2022/11/06 03:01:58;;;;;;;23.58;15.23;;;;;;;;;;4976643;28;20058;-83
2022/11/06 03:04:29;;;;;;;32.17;18.50;;;;;;;;;;4964228;28;20080;-83
2022/11/06 03:07:18;;;;;;;29.60;17.90;;;332.90;2329.60;;;;;;4976467;28;20030;-84
2022/11/06 03:09:44;;;;;;;29.30;17.20;;;;;;;;;;4976699;28;20114;-83
2022/11/06 03:12:24;;;;;;;32.25;18.98;;;;;;;;;;4977025;28;20023;-84
2022/11/06 03:15:08;;;;;;;34.70;19.45;;;;;;;;;;4976338;28;20054;-83
2022/11/06 03:17:40;;;;;;;32.85;20.15;;;;;;;;;;4976669;28;20127;-83
2022/11/06 03:20:06;;;;;;;52.17;31.00;;;;;;;;;;4977670;28;20034;-84
2022/11/06 03:22:40;;;;;;;45.00;24.00;;;;;;;;;;4978661;28;20027;-83
2022/11/06 03:25:22;;;;;;;36.47;21.42;;;;;;;;;;4976639;28;20130;-84
2022/11/06 03:28:01;;;;;;;26.95;16.52;;;;;;;;;;4975887;28;20033;-82
2022/11/06 03:30:27;;;;;;;22.35;14.35;;;;;;;;;;4976077;28;20030;-84
2022/11/06 03:32:58;;;;;;;29.65;17.92;;;;;;;;;;4976276;28;20469;-83
2022/11/06 03:35:43;;;;;;;38.88;24.38;;;;;;;;;;4975840;28;20039;-82
2022/11/06 03:38:15;;;;;;;35.03;20.50;;;332.80;2329.60;;;;;;4979555;28;20480;-83
2022/11/06 03:40:46;;;;;;;30.75;19.23;;;308.10;2304.00;;;;;;4988540;28;20055;-81
2022/11/06 03:43:15;;;;;;;40.58;21.55;;;308.00;2304.00;;;;;;4988486;28;20058;-85
2022/11/06 03:45:43;;;;;;;34.85;19.20;;;308.00;2304.00;;;;;;4986311;28;20118;-84
2022/11/06 03:48:18;;;;;;;34.88;19.83;;;308.00;2304.00;;;;;;4981975;28;20031;-83
2022/11/06 03:50:56;;;;;;;31.52;19.30;;;308.00;2304.00;;;;;;4987853;28;20138;-83
2022/11/06 03:53:44;;;;;;;28.92;18.55;;;308.00;2304.00;;;;;;4990386;28;20031;-82
2022/11/06 03:56:30;;;;;;;24.55;14.85;;;308.00;2304.00;;;;;;4993048;28;20095;-82
2022/11/06 03:58:57;;;;;;;26.50;16.55;;;307.90;2304.00;;;;;;4983908;28;20082;-83
2022/11/06 04:01:27;;;;;;;27.05;16.08;;;308.00;2304.00;;;;;;4980852;28;20023;-84
2022/11/06 04:03:55;;;;;;;21.00;14.02;;;308.00;2304.00;;;;;;4979328;28;20058;-82
2022/11/06 04:06:58;;;;;;;23.58;14.60;;;307.90;2304.00;;;;;;4976199;28;20026;-83
2022/11/06 04:15:04;;;;;;;21.95;13.35;;;308.00;2304.00;;;;;;4976613;28;20042;-83
2022/11/06 04:17:30;;;;;;;22.15;12.18;;;307.90;2304.00;;;;;;4975352;28;20114;-85
2022/11/06 04:20:03;;;;;;;17.98;11.43;;;307.90;2304.00;;;;;;4975244;28;20086;-83
2022/11/06 04:22:33;;;;;;;19.75;11.35;;;308.00;2304.00;;;;;;4975398;28;20038;-83
2022/11/06 04:28:08;;;;;;;16.63;11.55;;;;;;;;;;4976466;28;20165;-82
2022/11/06 04:30:56;;;;;;;18.58;11.65;;;;;;;;;;4975231;28;20228;-83
2022/11/06 04:33:46;;;;;;;20.23;11.32;;;;;;;;;;4975296;28;20027;-84
2022/11/06 04:36:20;;;;;;;18.65;11.18;;;;;;;;;;4961847;28;20047;-84
2022/11/06 04:38:55;;;;;;;19.80;12.18;;;;;;;;;;4974829;28;20027;-84
2022/11/06 04:41:34;;;;;;;16.63;11.40;;;;;;;;;;4974242;28;20050;-85
2022/11/06 04:44:13;;;;;;;16.67;10.18;;;;;;;;;;4975026;28;20420;-85
2022/11/06 04:46:52;;;;;;;15.40;10.30;;;;;;;;;;4974598;28;20026;-85
2022/11/06 04:49:19;;;;;;;17.05;10.65;;;;;;;;;;4974721;28;20022;-84
2022/11/06 04:51:46;;;;;;;16.30;10.35;;;;;;;;;;4974423;28;20027;-84
2022/11/06 04:54:14;;;;;;;19.52;11.40;;;;;;;;;;4974555;28;20093;-84
2022/11/06 04:56:40;;;;;;;16.98;11.43;;;;;;;;;;4974525;28;20118;-84
2022/11/06 04:59:06;;;;;;;15.63;10.70;;;;;;;;;;4974678;28;20031;-84
2022/11/06 05:01:33;;;;;;;16.60;11.43;;;;;;;;;;4974618;28;20551;-83
2022/11/06 05:03:59;;;;;;;19.45;11.80;;;;;;;;;;4974791;28;20035;-85
2022/11/06 05:06:25;;;;;;;18.63;10.52;;;;;;;;;;4974401;28;20477;-85
2022/11/06 05:08:51;;;;;;;20.30;10.27;;;;;;;;;;4974615;28;20102;-85
2022/11/06 05:11:17;;;;;;;16.48;10.43;;;;;;;;;;4974467;28;20062;-83
2022/11/06 05:13:43;;;;;;;16.73;10.95;;;;;;;;;;4974189;28;20027;-83
2022/11/06 05:16:10;;;;;;;43.67;26.63;;;;;;;;;;4974508;28;20035;-84
2022/11/06 05:18:36;;;;;;;25.40;16.13;;;;;;;;;;4973877;28;20026;-85
2022/11/06 05:23:47;;;;;;;20.40;13.10;;;307.90;2304.00;;;;;;4975570;28;20081;-84
2022/11/06 05:26:13;;;;;;;16.60;10.52;;;;;;;;;;4974055;28;20121;-84
2022/11/06 05:28:39;;;;;;;19.15;12.07;;;;;;;;;;4974124;28;20604;-83
2022/11/06 05:31:05;;;;;;;17.20;10.32;;;;;;;;;;4957973;28;20039;-85
2022/11/06 05:33:32;;;;;;;15.38;9.23;;;;;;;;;;4973765;28;20042;-84
2022/11/06 05:36:02;;;;;;;14.90;9.52;;;;;;;;;;4973923;28;20098;-85
2022/11/06 05:38:28;;;;;;;16.02;9.30;;;;;;;;;;4973968;28;20575;-86
2022/11/06 05:40:54;;;;;;;14.40;9.40;;;;;;;;;;4974698;28;20046;-84
2022/11/06 05:43:20;;;;;;;13.07;8.68;;;;;;;;;;4974167;28;20027;-86
2022/11/06 05:45:46;;;;;;;15.02;9.30;;;;;;;;;;4974130;28;20031;-85
2022/11/06 05:48:12;;;;;;;15.85;10.00;;;;;;;;;;4973619;28;20034;-83
2022/11/06 05:50:38;;;;;;;15.07;9.25;;;;;;;;;;4973963;28;20023;-86
2022/11/06 05:53:04;;;;;;;16.55;10.18;;;;;;;;;;4974389;28;20498;-86
2022/11/06 05:55:30;;;;;;;12.50;7.65;;;;;;;;;;4973783;28;20027;-85
2022/11/06 05:57:56;;;;;;;11.73;7.25;;;;;;;;;;4973939;28;20499;-83
2022/11/06 06:00:23;;;;;;;11.93;8.90;;;;;;;;;;4973967;28;20019;-85
2022/11/06 06:02:49;;;;;;;16.02;9.35;;;;;;;;;;4973706;28;20031;-85
2022/11/06 06:05:15;;;;;;;11.80;7.00;;;;;;;;;;4973907;28;20121;-85
2022/11/06 06:07:41;;;;;;;12.93;7.53;;;;;;;;;;4973828;28;20019;-85
2022/11/06 06:10:07;;;;;;;9.82;6.18;;;;;;;;;;4973903;28;20524;-85
2022/11/06 06:12:33;;;;;;;16.52;9.55;;;;;;;;;;4973790;28;20125;-85
2022/11/06 06:15:00;;;;;;;14.60;9.45;;;;;;;;;;4973483;28;20027;-84
2022/11/06 06:17:26;;;;;;;22.75;14.45;;;;;;;;;;4973991;28;20449;-86
2022/11/06 06:19:53;;;;;;;18.77;12.98;;;;;;;;;;4973843;28;20110;-85
2022/11/06 06:22:19;;;;;;;15.63;10.98;;;;;;;;;;4973636;28;20381;-85
2022/11/06 06:24:45;;;;;;;14.32;10.07;;;;;;;;;;4973969;28;20034;-84
2022/11/06 06:27:11;;;;;;;11.88;8.93;;;;;;;;;;4973658;28;20033;-84
2022/11/06 06:29:37;;;;;;;10.10;6.78;;;;;;;;;;4976670;28;20019;-86
2022/11/06 06:32:03;;;;;;;9.80;6.50;;;;;;;;;;4979791;28;20042;-84
2022/11/06 06:34:29;;;;;;;10.10;6.10;;;;;;;;;;4978184;28;20061;-85
2022/11/06 06:36:55;;;;;;;12.77;8.30;;;;;;;;;;4977289;28;20117;-86
2022/11/06 06:39:22;;;;;;;9.85;6.38;;;;;;;;;;4977466;28;20023;-87
2022/11/06 06:41:48;;;;;;;12.23;7.93;;;;;;;;;;4976693;28;20125;-85
2022/11/06 06:44:14;;;;;;;12.38;7.68;;;;;;;;;;4976840;28;20106;-87
2022/11/06 06:46:40;;;;;;;11.88;6.72;;;;;;;;;;4976388;28;20027;-85
2022/11/06 06:49:07;;;;;;;9.77;6.10;;;;;;;;;;4976946;28;20034;-87
2022/11/06 06:51:33;;;;;;;10.38;6.30;;;;;;;;;;4976167;28;20027;-85
2022/11/06 06:54:00;;;;;;;10.40;6.93;;;;;;;;;;4978154;28;20039;-86
2022/11/06 06:56:26;;;;;;;10.32;6.85;;;;;;;;;;4977593;28;20129;-87
2022/11/06 06:58:55;;;;;;;11.43;8.13;;;;;;;;;;4976737;28;20077;-86
2022/11/06 07:01:21;;;;;;;10.50;6.43;;;;;;;;;;4976933;28;20019;-87
2022/11/06 07:03:47;;;;;;;12.27;6.60;;;;;;;;;;4976531;28;20023;-88
2022/11/06 07:06:14;;;;;;;9.70;5.93;;;;;;;;;;4976600;28;20019;-86
2022/11/06 07:08:40;;;;;;;8.98;6.60;;;;;;;;;;4976642;28;20027;-87
2022/11/06 07:11:07;;;;;;;9.73;6.40;;;;;;;;;;4976657;28;20023;-86
2022/11/06 07:13:33;;;;;;;8.93;6.38;;;;;;;;;;4976201;28;20030;-85
2022/11/06 07:16:02;;;;;;;9.77;6.70;;;;;;;;;;4976398;28;20041;-87
2022/11/06 07:18:28;;;;;;;9.38;6.22;;;;;;;;;;4975677;28;20035;-84
2022/11/06 07:20:54;;;;;;;9.15;6.70;;;;;;;;;;4976723;28;20023;-86
2022/11/06 07:23:20;;;;;;;11.25;8.05;;;;;;;;;;4976462;28;20077;-86
2022/11/06 07:25:51;;;;;;;13.70;9.00;;;;;;;;;;4976248;28;20026;-85
2022/11/06 07:28:17;;;;;;;10.43;6.25;;;;;;;;;;4976536;28;20472;-86
2022/11/06 07:30:44;;;;;;;10.95;7.20;;;;;;;;;;4977631;28;20026;-87
2022/11/06 07:33:10;;;;;;;12.25;8.52;;;;;;;;;;4977124;28;20161;-86
2022/11/06 07:35:36;;;;;;;10.40;6.00;;;;;;;;;;4976304;28;20030;-87
2022/11/06 07:38:06;;;;;;;14.18;9.63;;;;;;;;;;4976404;28;20125;-85
2022/11/06 07:40:32;;;;;;;11.60;8.20;;;;;;;;;;4975380;28;20130;-87
2022/11/06 07:43:09;;;;;;;9.80;6.72;;;;;;;;;;4977502;28;20023;-85
2022/11/06 07:45:36;;;;;;;8.07;5.78;;;;;;;;;;4971923;28;20031;-85
2022/11/06 07:48:02;;;;;;;9.13;5.70;;;;;;;;;;4956661;29;20385;-86
2022/11/06 07:50:28;;;;;;;11.88;7.63;;;;;;;;;;4955989;29;20051;-84
2022/11/06 07:52:55;;;;;;;9.68;6.15;;;;;;;;;;4956812;29;20023;-85
2022/11/06 07:55:21;;;;;;;11.82;7.13;;;;;;;;;;4956887;28;20090;-84
2022/11/06 07:57:47;;;;;;;8.90;6.40;;;;;;;;;;4956849;28;20027;-85
2022/11/06 08:00:14;;;;;;;10.25;7.15;;;;;;;;;;4956591;29;20023;-86
2022/11/06 08:02:40;;;;;;;11.00;7.15;;;;;;;;;;4956560;28;20027;-85
2022/11/06 08:05:07;;;;;;;15.13;10.07;;;;;;;;;;4956736;28;20024;-85
2022/11/06 08:07:33;;;;;;;16.65;10.77;;;;;;;;;;4956894;28;20023;-87
2022/11/06 08:09:59;;;;;;;17.48;11.73;;;;;;;;;;4956652;29;20081;-85
2022/11/06 08:12:25;;;;;;;18.70;12.00;;;;;;;;;;4956999;28;20031;-87
2022/11/06 08:14:51;;;;;;;14.02;9.98;;;;;;;;;;4956316;28;20042;-85
2022/11/06 08:17:17;;;;;;;12.90;8.68;;;;;;;;;;4956601;28;20053;-85
2022/11/06 08:19:43;;;;;;;13.65;8.65;;;;;;;;;;4956518;29;20031;-85
2022/11/06 08:22:09;;;;;;;12.00;8.45;;;;;;;;;;4956042;29;20078;-84
2022/11/06 08:24:35;;;;;;;14.20;8.73;;;;;;;;;;4956162;28;20035;-84
2022/11/06 08:27:02;;;;;;;10.15;7.47;;;;;;;;;;4955977;28;20122;-85
2022/11/06 08:29:28;;;;;;;10.40;7.38;;;;;;;;;;4955782;28;20033;-83
2022/11/06 08:31:54;;;;;;;10.48;7.68;;;;;;;;;;4962212;28;20019;-84
2022/11/06 08:34:20;;;;;;;13.38;9.63;;;;;;;;;;4965976;29;20042;-83
2022/11/06 08:36:51;;;;;;;11.15;8.10;;;;;;;;;;4966621;29;20038;-83
2022/11/06 08:39:17;;;;;;;11.10;7.97;;;;;;;;;;4967282;29;20027;-83
2022/11/06 08:41:44;;;;;;;11.23;9.95;;;;;;;;;;4967077;28;20051;-83
2022/11/06 08:44:10;;;;;;;10.45;7.43;;;;;;;;;;4968001;28;20091;-84
2022/11/06 08:46:36;;;;;;;12.63;8.80;;;;;;;;;;4967874;29;20124;-84
2022/11/06 08:49:02;;;;;;;12.90;8.88;;;;;;;;;;4965004;28;20121;-83
2022/11/06 08:51:28;;;;;;;13.90;9.60;;;;;;;;;;4967204;28;20682;-83
2022/11/06 08:53:54;;;;;;;15.23;9.05;;;;;;;;;;4966436;29;20127;-86
2022/11/06 08:56:20;;;;;;;13.48;9.85;;;;;;;;;;4957867;29;20086;-84
2022/11/06 08:58:47;;;;;;;14.45;10.10;;;;;;;;;;4956493;29;20034;-84
2022/11/06 09:01:13;;;;;;;12.07;9.02;;;;;;;;;;4956638;28;20327;-83
2022/11/06 09:03:39;;;;;;;14.50;10.90;;;;;;;;;;4956055;29;20024;-83
2022/11/06 09:06:05;;;;;;;13.82;9.38;;;;;;;;;;4956009;29;20098;-86
2022/11/06 09:08:32;;;;;;;12.82;9.52;;;;;;;;;;4955983;29;20118;-84
2022/11/06 09:10:58;;;;;;;18.63;8.52;;;;;;;;;;4955616;28;20027;-83
2022/11/06 09:13:25;;;;;;;17.08;10.70;;;;;;;;;;4955721;28;20522;-84
2022/11/06 09:15:51;;;;;;;20.83;13.80;;;;;;;;;;4955732;28;20118;-83
2022/11/06 09:18:17;;;;;;;24.77;18.90;;;;;;;;;;4956988;29;20035;-85
2022/11/06 09:20:43;;;;;;;20.08;13.93;;;;;;;;;;4956050;28;20027;-85
2022/11/06 09:23:09;;;;;;;15.55;9.57;;;;;;;;;;4956089;28;20064;-85
2022/11/06 09:25:35;;;;;;;13.85;9.60;;;;;;;;;;4955271;28;20027;-86
2022/11/06 09:28:01;;;;;;;15.35;9.23;;;;;;;;;;4955551;29;20434;-82
2022/11/06 09:30:29;;;;;;;20.15;10.88;;;;;;;;;;4955334;29;20038;-82
2022/11/06 09:32:56;;;;;;;12.20;8.52;;;;;;;;;;4955614;29;20441;-82
2022/11/06 09:35:23;;;;;;;18.55;11.57;;;;;;;;;;4956412;28;20122;-81
2022/11/06 09:37:49;;;;;;;14.98;9.98;;;;;;;;;;4961218;29;20023;-83
2022/11/06 09:40:20;;;;;;;11.75;8.32;;;;;;;;;;4964683;29;20039;-82
2022/11/06 09:43:07;;;;;;;13.65;8.10;;;;;;;;;;4960201;29;20035;-83
2022/11/06 09:45:34;;;;;;;17.40;10.43;;;;;;;;;;4955051;29;20468;-82
2022/11/06 09:48:07;;;;;;;18.00;13.52;;;;;;;;;;4955016;29;20027;-85
2022/11/06 09:50:35;;;;;;;13.95;9.65;;;;;;;;;;4955114;29;20024;-83
2022/11/06 09:53:06;;;;;;;12.68;8.65;;;;;;;;;;4954971;28;20028;-84
2022/11/06 09:55:42;;;;;;;16.45;9.77;;;;;;;;;;4955465;29;20507;-83
2022/11/06 09:58:13;;;;;;;14.35;9.10;;;;;;;;;;4954969;29;20484;-80
2022/11/06 10:00:40;;;;;;;13.05;9.13;;;;;;;;;;4954205;29;20023;-79
2022/11/06 10:03:25;;;;;;;14.00;9.18;;;;;;;;;;4955619;28;20034;-85
2022/11/06 10:05:52;;;;;;;17.42;10.98;;;;;;;;;;4959003;29;20038;-85
2022/11/06 10:08:26;;;;;;;17.55;11.25;;;;;;;;;;4959299;28;20023;-84
2022/11/06 10:11:03;;;;;;;16.35;10.50;;;;;;;;;;4960037;28;20385;-83
2022/11/06 10:13:45;;;;;;;16.15;10.55;;;;;;;;;;4958535;28;20102;-83
2022/11/06 10:16:30;;;;;;;12.90;9.50;;;;;;;;;;4958592;28;20028;-85
2022/11/06 10:19:11;;;;;;;11.98;9.25;;;;;;;;;;4958673;28;20081;-84
2022/11/06 10:21:46;;;;;;;12.35;9.10;;;;;;;;;;4958254;28;20030;-83
2022/11/06 10:24:15;;;;;;;23.80;14.82;;;;;;;;;;4958601;29;20027;-83
2022/11/06 10:26:45;;;;;;;18.58;10.80;;;;;;;;;;4958493;29;20110;-84
2022/11/06 10:29:14;;;;;;;16.60;10.50;;;;;;;;;;4977864;28;20048;-82
2022/11/06 10:31:49;;;;;;;17.48;10.07;;;;;;;;;;4982760;28;20024;-84
2022/11/06 10:34:20;;;;;;;12.88;8.43;;;;;;;;;;4977601;28;20479;-83
2022/11/06 10:36:51;;;;;;;16.60;9.18;;;;;;;;;;4961018;29;20047;-82
2022/11/06 10:39:26;;;;;;;17.17;9.70;;;;;;;;;;4961872;29;20058;-82
2022/11/06 10:41:56;;;;;;;15.77;9.15;;;;;;;;;;4961333;28;20050;-85
2022/11/06 10:44:28;;;;;;;21.55;11.98;;;;;;;;;;4960475;28;20023;-84
2022/11/06 10:47:04;;;;;;;20.20;11.55;;;;;;;;;;4957972;28;20035;-83
2022/11/06 10:49:44;;;;;;;24.88;13.40;;;;;;;;;;4957913;29;20139;-83
2022/11/06 10:52:29;;;;;;;27.15;15.98;;;;;;;;;;4958145;29;20484;-85
2022/11/06 10:55:08;;;;;;;35.40;17.08;;;;;;;;;;4957559;29;20064;-84
2022/11/06 10:57:40;;;;;;;28.23;15.77;;;;;;;;;;4957816;29;20027;-83
2022/11/06 11:00:10;;;;;;;36.85;19.52;;;;;;;;;;4957884;28;20019;-85
2022/11/06 11:02:39;;;;;;;26.33;15.88;;;;;;;;;;4958129;29;20031;-86
2022/11/06 11:05:13;;;;;;;28.30;17.88;;;;;;;;;;4958509;28;20031;-87
2022/11/06 11:07:40;;;;;;;27.40;16.35;;;;;;;;;;4958432;29;20027;-85
2022/11/06 11:10:26;;;;;;;21.20;12.52;;;;;;;;;;4958373;28;20023;-84
2022/11/06 11:12:57;;;;;;;20.20;14.85;;;;;;;;;;4958125;29;20516;-85
2022/11/06 11:15:25;;;;;;;20.33;13.63;;;;;;;;;;4957161;28;20453;-86
2022/11/06 11:18:15;;;;;;;26.13;19.25;;;;;;;;;;4958200;28;20032;-89
2022/11/06 11:20:46;;;;;;;24.73;17.25;;;;;;;;;;4958445;29;20023;-88
2022/11/06 11:23:20;;;;;;;22.45;15.35;;;;;;;;;;4958060;29;20117;-90
2022/11/06 11:25:54;;;;;;;23.10;15.05;;;;;;;;;;4958721;28;20067;-87
2022/11/06 11:28:33;;;;;;;31.80;22.65;;;;;;;;;;4958360;28;20081;-88
2022/11/06 11:31:13;;;;;;;45.90;26.77;;;;;;;;;;4958305;29;20485;-87
2022/11/06 11:33:40;;;;;;;27.88;16.17;;;;;;;;;;4957570;29;20481;-86
2022/11/06 11:36:07;;;;;;;31.17;20.50;;;;;;;;;;4961732;28;20031;-87
2022/11/06 11:38:38;;;;;;;27.40;18.15;;;;;;;;;;4976611;28;20023;-89
2022/11/06 11:41:14;;;;;;;24.70;16.83;;;;;;;;;;4976765;28;20396;-82
2022/11/06 11:43:41;;;;;;;27.95;18.85;;;;;;;;;;5001466;28;20922;-83
2022/11/06 11:46:07;;;;;;;26.52;16.85;;;;;;;;;;4978092;28;20031;-86
2022/11/06 11:48:44;;;;;;;25.35;16.63;;;;;;;;;;4957418;28;20027;-84
2022/11/06 11:51:19;;;;;;;20.67;14.80;;;;;;;;;;4956283;29;20023;-84
2022/11/06 11:53:45;;;;;;;27.90;17.33;;;;;;;;;;4957083;28;20031;-85
2022/11/06 11:56:16;;;;;;;27.85;21.27;;;;;;;;;;4956925;28;20074;-85
2022/11/06 11:58:48;;;;;;;33.80;23.00;;;;;;;;;;4957047;28;20031;-84
2022/11/06 12:01:14;;;;;;;24.95;17.65;;;;;;;;;;4957431;29;20473;-83
2022/11/06 12:03:43;;;;;;;23.25;15.95;;;;;;;;;;4956837;29;20389;-84
2022/11/06 12:06:14;;;;;;;19.55;13.63;;;;;;;;;;4957230;28;20037;-83
2022/11/06 12:08:45;;;;;;;16.02;12.43;;;;;;;;;;4957131;29;20465;-85
2022/11/06 12:11:14;;;;;;;19.60;14.55;;;;;;;;;;4956879;29;20029;-84
2022/11/06 12:13:40;;;;;;;146.63;69.30;;;;;;;;;;4965196;28;20425;-86
2022/11/06 12:16:18;;;;;;;140.32;73.00;;;;;;;;;;4976326;28;20023;-85
2022/11/06 12:18:46;;;;;;;90.55;58.22;;;;;;;;;;4975678;28;20503;-85
2022/11/06 12:21:24;;;;;;;73.75;50.55;;;;;;;;;;4975887;28;20097;-84
2022/11/06 12:24:08;;;;;;;45.55;34.58;;;;;;;;;;4992013;28;20015;-86
2022/11/06 12:26:38;;;;;;;38.05;26.85;;;;;;;;;;4990841;28;20027;-86
2022/11/06 12:29:07;;;;;;;26.35;18.88;;;;;;;;;;4973689;28;20491;-86
2022/11/06 12:31:38;;;;;;;26.42;21.17;;;;;;;;;;4975730;28;20038;-86
2022/11/06 12:34:06;;;;;;;31.17;22.52;;;;;;;;;;4973774;28;20026;-88
2022/11/06 12:36:38;;;;;;;24.52;17.77;;;;;;;;;;4975827;28;20069;-87
2022/11/06 12:39:10;;;;;;;26.60;16.90;;;;;;;;;;4973422;28;20022;-85
2022/11/06 12:41:39;;;;;;;21.98;13.57;;;;;;;;;;4975191;28;20492;-87
2022/11/06 12:44:09;;;;;;;24.35;14.27;;;;;;;;;;4975973;28;20026;-87
2022/11/06 12:46:58;;;;;;;25.23;16.92;;;;;;;;;;4977189;28;20074;-84
2022/11/06 12:49:24;;;;;;;29.40;18.30;;;;;;;;;;4981748;28;20033;-84
2022/11/06 12:52:09;;;;;;;26.13;17.65;;;;;;;;;;4982908;28;20109;-84
2022/11/06 12:54:53;;;;;;;28.95;17.55;;;;;;;;;;4976302;28;20393;-85
2022/11/06 12:57:38;;;;;;;30.10;18.15;;;;;;;;;;4975266;28;20357;-85
2022/11/06 13:00:08;;;;;;;31.15;17.95;;;;;;;;;;4975132;28;20073;-84
2022/11/06 13:02:49;;;;;;;33.33;20.23;;;;;;;;;;4974785;28;20023;-85
2022/11/06 13:05:17;;;;;;;23.95;15.40;;;;;;;;;;4975237;28;20085;-85
2022/11/06 13:08:02;;;;;;;25.67;16.10;;;;;;;;;;4975186;28;20465;-84
2022/11/06 13:10:47;;;;;;;26.73;17.42;;;;;;;;;;4974894;28;20070;-85
2022/11/06 13:13:26;;;;;;;18.67;13.80;;;;;;;;;;4975132;28;20031;-86
2022/11/06 13:16:15;;;;;;;23.95;14.10;;;;;;;;;;4974732;28;20030;-85
2022/11/06 13:18:46;;;;;;;24.23;16.67;;;;;;;;;;4948128;28;20129;-84
2022/11/06 13:21:12;;;;;;;29.27;17.92;;;;;;;;;;4974762;28;20031;-83
2022/11/06 13:23:41;;;;;;;23.83;16.05;;;;;;;;;;4974975;28;20019;-84
2022/11/06 13:26:22;;;;;;;32.05;20.70;;;;;;;;;;4974852;28;20035;-84
2022/11/06 13:28:54;;;;;;;26.73;17.05;;;;;;;;;;4973708;28;20018;-86
2022/11/06 13:31:22;;;;;;;26.92;16.05;;;;;;;;;;4974808;28;20409;-84
2022/11/06 13:33:48;;;;;;;26.63;15.65;;;;;;;;;;4974172;28;20026;-83
2022/11/06 13:36:14;;;;;;;23.58;15.43;;;;;;;;;;4974579;28;20535;-84
2022/11/06 13:38:43;;;;;;;42.15;24.27;;;;;;;;;;4974401;28;20034;-82
2022/11/06 13:41:22;;;;;;;40.75;25.65;;;;;;;;;;4973914;28;20502;-85
2022/11/06 13:43:52;;;;;;;38.13;24.85;;;;;;;;;;4974225;28;20105;-84
2022/11/06 13:46:27;;;;;;;40.15;24.30;;;;;;;;;;4974408;28;20113;-83
2022/11/06 13:48:53;;;;;;;34.50;19.05;;;;;;;;;;4974310;28;20034;-83
2022/11/06 13:51:22;;;;;;;28.83;18.77;;;;;;;;;;4974153;28;20030;-86
2022/11/06 13:53:48;;;;;;;37.58;24.75;;;;;;;;;;4974488;28;20604;-84
2022/11/06 13:56:14;;;;;;;30.83;19.98;;;;;;;;;;4975661;28;20381;-88
2022/11/06 13:58:44;;;;;;;37.13;20.90;;;;;;;;;;4976940;28;20027;-87
2022/11/06 14:01:13;;;;;;;30.70;19.73;;;;;;;;;;4979120;28;20035;-86
2022/11/06 14:03:58;;;;;;;34.28;24.23;;;;;;;;;;4980873;28;20034;-87
2022/11/06 14:06:28;;;;;;;40.92;28.42;;;;;;;;;;4976063;28;20031;-89
2022/11/06 14:08:56;;;;;;;65.15;41.42;;;;;;;;;;4975919;28;20022;-85
2022/11/06 14:11:27;;;;;;;44.20;30.73;;;;;;;;;;4974695;28;20038;-90
2022/11/06 14:14:03;;;;;;;53.55;38.47;;;;;;;;;;4974748;28;20031;-90
2022/11/06 14:16:43;;;;;;;56.08;40.65;;;;;;;;;;4974964;28;20049;-88
2022/11/06 14:19:12;;;;;;;39.78;28.42;;;;;;;;;;4974797;28;20027;-87
2022/11/06 14:21:44;;;;;;;33.25;24.17;;;;;;;;;;4975448;28;20023;-90
2022/11/06 14:24:16;;;;;;;48.65;34.65;;;;;;;;;;4974647;28;20037;-86
2022/11/06 14:26:42;;;;;;;41.90;29.43;;;;;;;;;;4975233;28;20023;-88
2022/11/06 14:29:27;;;;;;;37.47;24.90;;;;;;;;;;4976273;28;20038;-89
2022/11/06 14:32:10;;;;;;;33.63;22.30;;;;;;;;;;4975612;28;20050;-90
2022/11/06 14:34:38;;;;;;;32.85;21.45;;;;;;;;;;4974952;28;20122;-89
2022/11/06 14:37:19;;;;;;;28.90;20.23;;;;;;;;;;4971992;28;20027;-89
2022/11/06 14:39:51;;;;;;;24.85;18.35;;;;;;;;;;4956929;29;20032;-89
2022/11/06 14:42:23;;;;;;;27.40;20.25;;;;;;;;;;4958752;29;20059;-88